KTUP

Tupelo Regional Airport

Tupelo, Mississippi, USA
KTUP 141740Z 1418/1518 09008KT P6SM OVC007 FM141900 13006KT P6SM VCSH OVC007 FM150300 VRB03KT P6SM VCSH SCT007 BKN025 OVC070 FM151500 23006KT P6SM VCSH OVC007
Issued Valid From Valid To
Dec-14 @ 17:40 UTC
(4 hours ago)
Dec-14 @ 18:00 UTC
(4 hours ago)
Dec-15 @ 18:00 UTC
(in 20 hours)
Expired Click to View Dec-14 @ 18:00 to Dec-14 @ 19:00
KTUP 141740Z 1418/1518 09008KT P6SM OVC007
Wind Visibility Clouds
90° at 8 knots Greater than 6 miles
  • Overcast at 700' AGL
From Dec-14 @ 19:00 to Dec-15 @ 03:00
FM141900 13006KT P6SM VCSH OVC007
Wind Visibility Clouds
130° at 6 knots Greater than 6 miles
  • Overcast at 700' AGL
From Dec-15 @ 03:00 to Dec-15 @ 15:00
FM150300 VRB03KT P6SM VCSH SCT007 BKN025 OVC070
Wind Visibility Clouds
Variable at 3 knots Greater than 6 miles
  • Scattered at 700' AGL
  • Broken at 2,500' AGL
  • Overcast at 7,000' AGL
From Dec-15 @ 15:00 to Dec-15 @ 18:00
FM151500 23006KT P6SM VCSH OVC007
Wind Visibility Clouds
230° at 6 knots Greater than 6 miles
  • Overcast at 700' AGL
KTUP 141740Z 1418/1518 09008KT P6SM OVC007 FM141900 13006KT P6SM VCSH OVC007 FM150300 VRB03KT P6SM VCSH SCT007 BKN025 OVC070 FM151500 23006KT P6SM VCSH OVC007
Issued Dec-14 @ 17:40 UTC
(4 hours ago)
Valid From Dec-14 @ 18:00 UTC
(4 hours ago)
Valid To Dec-15 @ 18:00 UTC
(in 20 hours)
Dec-14 @ 18:00 - Dec-14 @ 19:00
Wind Visibility
90° at 8 knots Greater than 6 miles
Clouds
  • Overcast at 700' AGL
From Dec-14 @ 19:00 - Dec-15 @ 03:00
Wind Visibility
130° at 6 knots Greater than 6 miles
Clouds
  • Overcast at 700' AGL
From Dec-15 @ 03:00 - Dec-15 @ 15:00
Wind Visibility
Variable at 3 knots Greater than 6 miles
Clouds
  • Scattered at 700' AGL
  • Broken at 2,500' AGL
  • Overcast at 7,000' AGL
From Dec-15 @ 15:00 - Dec-15 @ 18:00
Wind Visibility
230° at 6 knots Greater than 6 miles
Clouds
  • Overcast at 700' AGL